Map

Track Data

SID SEASON NUMBER BASIN SUBBASIN NAME ISO_TIME NATURE LAT LON WMO_WIND WMO_PRES WMO_AGENCY TRACK_TYPE DIST2LAND LANDFALL IFLAG USA_AGENCY USA_ATCF_ID USA_LAT USA_LON USA_RECORD USA_STATUS USA_WIND USA_PRES USA_SSHS USA_R34_NE USA_R34_SE USA_R34_SW USA_R34_NW USA_R50_NE USA_R50_SE USA_R50_SW USA_R50_NW USA_R64_NE USA_R64_SE USA_R64_SW USA_R64_NW USA_POCI USA_ROCI USA_RMW USA_EYE TOKYO_LAT TOKYO_LON TOKYO_GRADE TOKYO_WIND TOKYO_PRES TOKYO_R50_DIR TOKYO_R50_LONG TOKYO_R50_SHORT TOKYO_R30_DIR TOKYO_R30_LONG TOKYO_R30_SHORT TOKYO_LAND CMA_LAT CMA_LON CMA_CAT CMA_WIND CMA_PRES HKO_LAT HKO_LON HKO_CAT HKO_WIND HKO_PRES NEWDELHI_LAT NEWDELHI_LON NEWDELHI_GRADE NEWDELHI_WIND NEWDELHI_PRES NEWDELHI_CI NEWDELHI_DP NEWDELHI_POCI REUNION_LAT REUNION_LON REUNION_TYPE REUNION_WIND REUNION_PRES REUNION_TNUM REUNION_CI REUNION_RMW REUNION_R34_NE REUNION_R34_SE REUNION_R34_SW REUNION_R34_NW REUNION_R50_NE REUNION_R50_SE REUNION_R50_SW REUNION_R50_NW REUNION_R64_NE REUNION_R64_SE REUNION_R64_SW REUNION_R64_NW BOM_LAT BOM_LON BOM_TYPE BOM_WIND BOM_PRES BOM_TNUM BOM_CI BOM_RMW BOM_R34_NE BOM_R34_SE BOM_R34_SW BOM_R34_NW BOM_R50_NE BOM_R50_SE BOM_R50_SW BOM_R50_NW BOM_R64_NE BOM_R64_SE BOM_R64_SW BOM_R64_NW BOM_ROCI BOM_POCI BOM_EYE BOM_POS_METHOD BOM_PRES_METHOD NADI_LAT NADI_LON NADI_CAT NADI_WIND NADI_PRES WELLINGTON_LAT WELLINGTON_LON WELLINGTON_WIND WELLINGTON_PRES DS824_LAT DS824_LON DS824_STAGE DS824_WIND DS824_PRES TD9636_LAT TD9636_LON TD9636_STAGE TD9636_WIND TD9636_PRES TD9635_LAT TD9635_LON TD9635_WIND TD9635_PRES TD9635_ROCI NEUMANN_LAT NEUMANN_LON NEUMANN_CLASS NEUMANN_WIND NEUMANN_PRES MLC_LAT MLC_LON MLC_CLASS MLC_WIND MLC_PRES USA_GUST BOM_GUST BOM_GUST_PER REUNION_GUST REUNION_GUST_PER USA_SEAHGT USA_SEARAD_NE USA_SEARAD_SE USA_SEARAD_SW USA_SEARAD_NW STORM_SPEED STORM_DIR
1913028S10139 1913 12 SP EA NOT_NAMED 1913-01-27 12:00:00 NR -10.0000 139.400 main 188 188 __________O___ -1 -10.0000 139.400 7 1 158
1913028S10139 1913 12 SP EA NOT_NAMED 1913-01-27 15:00:00 NR -10.0367 139.428 main 188 188 __________P___ -1 -10.0367 139.428 7 1 0
1913028S10139 1913 12 SP EA NOT_NAMED 1913-01-27 18:00:00 NR -10.0887 139.384 main 196 196 __________P___ -1 -10.0887 139.384 7 3 239
1913028S10139 1913 12 SP EA NOT_NAMED 1913-01-27 21:00:00 NR -10.1715 139.199 main 213 208 __________P___ -1 -10.1715 139.199 7 6 250
1913028S10139 1913 12 SP EA NOT_NAMED 1913-01-28 00:00:00 NR -10.3000 138.800 main 215 213 __________O___ -1 -10.3000 138.800 7 11 253
1913028S10139 1913 12 SP EA NOT_NAMED 1913-01-28 03:00:00 NR -10.4831 138.143 main 234 169 __________P___ -1 -10.4831 138.143 7 15 255
1913028S10139 1913 12 SP EA NOT_NAMED 1913-01-28 06:00:00 NR -10.7068 137.295 main 169 123 __________P___ -1 -10.7068 137.295 7 18 255
1913028S10139 1913 12 SP EA NOT_NAMED 1913-01-28 09:00:00 NR -10.9518 136.349 main 114 100 __________P___ -1 -10.9518 136.349 7 19 255
1913028S10139 1913 12 SP EA NOT_NAMED 1913-01-28 12:00:00 NR -11.2000 135.400 main 103 74 __________O___ -1 -11.2000 135.400 7 19 254
1913028S10139 1913 12 SI WA NOT_NAMED 1913-01-28 15:00:00 NR -11.4581 134.489 main 64 11 __________P___ -1 -11.4581 134.489 7 18 254
1913028S10139 1913 12 SI WA NOT_NAMED 1913-01-28 18:00:00 NR -11.7110 133.606 main 15 0 __________P___ -1 -11.7110 133.606 7 17 254
1913028S10139 1913 12 SI WA NOT_NAMED 1913-01-28 21:00:00 NR -11.9333 132.820 main 0 0 __________P___ -1 -11.9333 132.820 7 14 254
1913028S10139 1913 12 SI WA NOT_NAMED 1913-01-29 00:00:00 NR -12.1000 132.200 main 22 11 __________O___ -1 -12.1000 132.200 7 10 256
1913028S10139 1913 12 SI WA NOT_NAMED 1913-01-29 03:00:00 NR -12.1811 131.819 main 11 11 __________P___ -1 -12.1811 131.819 7 6 259
1913028S10139 1913 12 SI WA NOT_NAMED 1913-01-29 06:00:00 NR -12.2084 131.604 main 11 11 __________P___ -1 -12.2084 131.604 7 3 265
1913028S10139 1913 12 SI WA NOT_NAMED 1913-01-29 09:00:00 NR -12.2066 131.488 main 11 10 __________P___ -1 -12.2066 131.488 7 2 272
1913028S10139 1913 12 SI WA NOT_NAMED 1913-01-29 12:00:00 NR -12.2000 131.400 main 10 0 __________O___ -1 -12.2000 131.400 7 2 268
1913028S10139 1913 12 SI WA NOT_NAMED 1913-01-29 15:00:00 NR -12.2126 131.268 main 0 0 __________P___ -1 -12.2126 131.268 7 3 264
1913028S10139 1913 12 SI WA NOT_NAMED 1913-01-29 18:00:00 NR -12.2271 131.145 main 10 0 __________P___ -1 -12.2271 131.145 7 3 261
1913028S10139 1913 12 SI WA NOT_NAMED 1913-01-29 21:00:00 NR -12.2531 130.999 main 0 0 __________P___ -1 -12.2531 130.999 7 3 258
1913028S10139 1913 12 SI WA NOT_NAMED 1913-01-30 00:00:00 NR -12.3000 130.800 main 11 11 __________O___ -1 -12.3000 130.800 7 5 255
1913028S10139 1913 12 SI WA NOT_NAMED 1913-01-30 03:00:00 NR -12.3826 130.508 main 15 15 __________P___ -1 -12.3826 130.508 7 7 253
1913028S10139 1913 12 SI WA NOT_NAMED 1913-01-30 06:00:00 NR -12.4852 130.160 main 31 31 __________P___ -1 -12.4852 130.160 7 7 253
1913028S10139 1913 12 SI WA NOT_NAMED 1913-01-30 09:00:00 NR -12.5951 129.783 main 55 55 __________P___ -1 -12.5951 129.783 7 8 254
1913028S10139 1913 12 SI WA NOT_NAMED 1913-01-30 12:00:00 NR -12.7000 129.400 main 83 83 __________O___ -1 -12.7000 129.400 7 8 255
1913028S10139 1913 12 SI WA NOT_NAMED 1913-01-30 15:00:00 NR -12.7903 129.032 main 116 116 __________P___ -1 -12.7903 129.032 7 7 257
1913028S10139 1913 12 SI WA NOT_NAMED 1913-01-30 18:00:00 NR -12.8676 128.680 main 136 136 __________P___ -1 -12.8676 128.680 7 7 258
1913028S10139 1913 12 SI WA NOT_NAMED 1913-01-30 21:00:00 NR -12.9361 128.338 main 157 129 __________P___ -1 -12.9361 128.338 7 7 259
1913028S10139 1913 12 SI WA NOT_NAMED 1913-01-31 00:00:00 NR -13.0000 128.000 main 129 __________O___ -1 -13.0000 128.000 7 7 259

Digital Typhoon Data and Search

About IBTrACS Database

This database is a web-friendly format of International Best Track Archive for Climate Stewardship (IBTrACS), a global best track data archive curated by NOAA dating back to 1842.

Updated: 2021-10-25